Time;durP1;ratioP1;P1;durP2;ratioP2;P2;SDS_P1;SDS_P2;PMS_P1;PMS_P2;Temp;Humidity;BMP_temperature;BMP_pressure;BME280_temperature;BME280_humidity;BME280_pressure;Samples;Min_cycle;Max_cycle;Signal;HPM_P1;HPM_P2
2022/06/05 00:00:59;;;;;;;9.40;5.07;;;12.30;99.90;;;;;;5051665;28;20483;-66
2022/06/05 00:03:49;;;;;;;9.60;5.78;;;12.20;99.90;;;;;;5014028;28;20053;-65
2022/06/05 00:06:41;;;;;;;11.68;5.95;;;12.20;99.90;;;;;;5030359;28;20045;-66
2022/06/05 00:09:33;;;;;;;11.00;6.47;;;12.20;99.90;;;;;;5010444;28;20092;-66
2022/06/05 00:12:09;;;;;;;8.63;5.63;;;12.20;99.90;;;;;;5010357;28;20037;-66
2022/06/05 00:14:39;;;;;;;8.93;5.65;;;12.20;99.90;;;;;;5010325;28;20550;-65
2022/06/05 00:17:15;;;;;;;12.00;5.75;;;12.20;99.90;;;;;;5010044;28;20048;-65
2022/06/05 00:19:44;;;;;;;9.93;5.50;;;12.10;99.90;;;;;;4993879;28;20089;-64
2022/06/05 00:22:10;;;;;;;11.90;5.68;;;12.10;99.90;;;;;;5010243;28;20077;-66
2022/06/05 00:24:36;;;;;;;11.45;5.40;;;12.10;99.90;;;;;;4993920;28;20050;-65
2022/06/05 00:27:30;;;;;;;9.07;5.45;;;12.10;99.90;;;;;;5010013;28;20074;-65
2022/06/05 00:30:14;;;;;;;10.25;5.53;;;12.00;99.90;;;;;;5010159;28;20045;-64
2022/06/05 00:32:51;;;;;;;9.95;5.50;;;12.00;99.90;;;;;;4993575;28;20077;-66
2022/06/05 00:35:21;;;;;;;8.48;5.50;;;12.00;99.90;;;;;;4993225;28;20053;-66
2022/06/05 00:38:15;;;;;;;9.48;6.68;;;12.00;99.90;;;;;;5009702;28;20393;-65
2022/06/05 00:41:07;;;;;;;9.65;5.53;;;12.00;99.90;;;;;;5021038;28;20055;-64
2022/06/05 00:43:33;;;;;;;11.37;6.10;;;12.00;99.90;;;;;;5029672;28;20507;-66
2022/06/05 00:45:58;;;;;;;13.40;7.20;;;12.00;99.90;;;;;;5039033;28;20337;-66
2022/06/05 00:48:25;;;;;;;9.52;5.88;;;12.00;99.90;;;;;;5050719;28;20048;-65
2022/06/05 00:50:51;;;;;;;7.90;5.80;;;11.90;99.90;;;;;;5051870;28;20040;-64
2022/06/05 00:53:16;;;;;;;10.63;6.25;;;11.90;99.90;;;;;;5050436;28;20047;-66
2022/06/05 00:55:49;;;;;;;10.80;5.88;;;11.90;99.90;;;;;;5050364;28;20487;-66
2022/06/05 00:58:16;;;;;;;9.40;5.82;;;11.90;99.90;;;;;;5047253;28;20569;-65
2022/06/05 01:00:47;;;;;;;10.88;6.00;;;11.90;99.90;;;;;;5049944;28;20057;-65
2022/06/05 01:03:13;;;;;;;12.98;6.65;;;11.90;99.90;;;;;;5051364;28;20513;-65
2022/06/05 01:05:39;;;;;;;10.45;6.20;;;11.90;99.90;;;;;;5051029;28;20067;-65
2022/06/05 01:08:06;;;;;;;8.70;5.65;;;11.90;99.90;;;;;;5049919;28;20384;-65
2022/06/05 01:10:48;;;;;;;9.88;6.50;;;11.80;99.90;;;;;;5051461;28;20428;-64
2022/06/05 01:13:33;;;;;;;9.05;6.28;;;11.90;99.90;;;;;;5050837;28;20094;-66
2022/06/05 01:16:27;;;;;;;8.68;5.97;;;11.80;99.90;;;;;;5050622;28;20129;-64
2022/06/05 01:19:25;;;;;;;12.48;6.85;;;11.80;99.90;;;;;;5049474;28;20047;-65
2022/06/05 01:22:28;;;;;;;11.18;6.47;;;11.90;99.90;;;;;;5049781;28;20052;-65
2022/06/05 01:25:10;;;;;;;10.60;6.65;;;11.80;99.90;;;;;;5049504;28;20052;-66
2022/06/05 01:27:39;;;;;;;12.02;6.65;;;11.80;99.90;;;;;;5050152;28;20153;-64
2022/06/05 01:30:21;;;;;;;10.57;6.63;;;11.80;99.90;;;;;;5047864;28;20033;-66
2022/06/05 01:33:01;;;;;;;10.27;7.15;;;11.80;99.90;;;;;;5051048;28;20483;-65
2022/06/05 01:35:33;;;;;;;10.20;7.00;;;11.80;99.90;;;;;;5049834;28;20079;-65
2022/06/05 01:38:07;;;;;;;11.70;7.32;;;11.80;99.90;;;;;;5050954;28;20507;-65
2022/06/05 01:40:40;;;;;;;9.57;6.90;;;11.80;99.90;;;;;;5049974;28;20049;-65
2022/06/05 01:43:13;;;;;;;10.55;7.25;;;11.80;99.90;;;;;;5049363;28;20072;-64
2022/06/05 01:45:51;;;;;;;9.10;7.30;;;11.80;99.90;;;;;;5049795;28;20099;-65
2022/06/05 01:48:21;;;;;;;12.95;8.38;;;11.80;99.90;;;;;;5050550;28;20045;-66
2022/06/05 01:50:53;;;;;;;13.48;7.47;;;11.70;99.90;;;;;;5050582;28;20049;-65
2022/06/05 01:53:33;;;;;;;13.20;7.70;;;11.70;99.90;;;;;;5049310;28;20043;-65
2022/06/05 01:56:05;;;;;;;12.55;7.55;;;11.70;99.90;;;;;;5049686;28;20416;-64
2022/06/05 01:58:56;;;;;;;14.77;8.40;;;11.70;99.90;;;;;;5050437;28;20123;-65
2022/06/05 02:01:30;;;;;;;10.57;8.40;;;11.70;99.90;;;;;;5011637;28;20048;-65
2022/06/05 02:04:05;;;;;;;12.00;8.00;;;11.70;99.90;;;;;;4995467;28;20085;-65
2022/06/05 02:07:06;;;;;;;10.88;8.00;;;11.70;99.90;;;;;;5012059;28;20041;-65
2022/06/05 02:09:40;;;;;;;10.27;8.27;;;11.70;99.90;;;;;;4992228;28;20484;-65
2022/06/05 02:12:08;;;;;;;12.20;8.60;;;11.70;99.90;;;;;;5008556;28;20096;-65
2022/06/05 02:14:35;;;;;;;18.42;9.00;;;11.70;99.90;;;;;;4991912;28;20046;-65
2022/06/05 02:17:02;;;;;;;13.10;8.75;;;11.70;99.90;;;;;;5008651;28;20064;-66
2022/06/05 02:19:28;;;;;;;13.85;8.90;;;11.70;99.90;;;;;;5008276;28;20088;-65
2022/06/05 02:22:01;;;;;;;13.98;8.95;;;11.70;99.90;;;;;;5008009;28;20092;-64
2022/06/05 02:24:27;;;;;;;12.48;8.10;;;11.70;99.90;;;;;;5008230;28;20401;-65
2022/06/05 02:26:52;;;;;;;11.95;8.73;;;11.70;99.90;;;;;;5008438;28;20160;-66
2022/06/05 02:29:21;;;;;;;14.27;9.23;;;11.70;99.90;;;;;;5008398;28;20088;-65
2022/06/05 02:32:11;;;;;;;14.20;9.43;;;11.70;99.90;;;;;;5008220;28;20050;-66
2022/06/05 02:35:00;;;;;;;14.30;8.68;;;11.70;99.90;;;;;;4991975;28;20128;-65
2022/06/05 02:37:51;;;;;;;13.38;8.95;;;11.70;99.90;;;;;;5010733;28;20046;-65
2022/06/05 02:40:41;;;;;;;12.20;8.77;;;11.70;99.90;;;;;;5031606;28;20064;-66
2022/06/05 02:43:29;;;;;;;13.68;8.70;;;11.70;99.90;;;;;;5031921;28;20041;-65
2022/06/05 02:45:58;;;;;;;14.35;9.80;;;11.70;99.90;;;;;;5029521;28;20049;-66
2022/06/05 02:48:30;;;;;;;12.90;9.45;;;11.70;99.90;;;;;;5053695;28;20452;-65
2022/06/05 02:51:15;;;;;;;13.55;9.52;;;11.70;99.90;;;;;;5053759;28;20099;-64
2022/06/05 02:53:52;;;;;;;13.50;9.70;;;11.70;99.90;;;;;;5053587;28;20515;-64
2022/06/05 02:56:18;;;;;;;13.13;10.25;;;11.70;99.90;;;;;;5053634;28;20502;-65
2022/06/05 02:58:46;;;;;;;15.77;9.48;;;11.70;99.90;;;;;;5053130;28;20059;-65
2022/06/05 03:03:57;;;;;;;13.05;10.05;;;11.70;99.90;;;;;;5053130;28;20037;-65
2022/06/05 03:06:22;;;;;;;16.95;10.55;;;11.70;99.90;;;;;;5053450;28;20033;-66
2022/06/05 03:08:48;;;;;;;15.20;10.60;;;11.70;99.90;;;;;;5052136;28;20044;-66
2022/06/05 03:11:14;;;;;;;15.77;9.73;;;11.80;99.90;;;;;;5052012;28;20045;-66
2022/06/05 03:13:40;;;;;;;13.93;9.60;;;11.80;99.90;;;;;;5053176;28;20407;-65
2022/06/05 03:16:07;;;;;;;14.80;9.70;;;11.80;99.90;;;;;;5053226;28;20494;-65
2022/06/05 03:18:33;;;;;;;15.63;9.82;;;11.80;99.90;;;;;;5052996;28;20510;-65
2022/06/05 03:20:59;;;;;;;13.85;10.13;;;11.80;99.90;;;;;;5051988;28;20480;-65
2022/06/05 03:23:26;;;;;;;16.73;10.27;;;11.80;99.90;;;;;;5053565;28;20039;-65
2022/06/05 03:25:52;;;;;;;17.13;10.60;;;11.80;99.90;;;;;;5035615;28;20411;-65
2022/06/05 03:28:18;;;;;;;17.70;10.00;;;11.80;99.90;;;;;;5051981;28;20094;-65
2022/06/05 03:30:44;;;;;;;12.93;9.73;;;11.80;99.90;;;;;;5053014;28;20045;-65
2022/06/05 03:33:10;;;;;;;17.35;10.07;;;11.80;99.90;;;;;;5052016;28;20071;-65
2022/06/05 03:35:42;;;;;;;14.15;10.02;;;11.80;99.90;;;;;;5049498;28;20045;-65
2022/06/05 03:38:08;;;;;;;13.20;9.87;;;11.80;99.90;;;;;;5053367;28;20391;-65
2022/06/05 03:40:34;;;;;;;13.50;10.60;;;11.80;99.90;;;;;;5053276;28;20112;-66
2022/06/05 03:43:00;;;;;;;13.02;9.93;;;11.80;99.90;;;;;;5052950;28;20093;-66
2022/06/05 03:45:26;;;;;;;12.32;10.10;;;11.80;99.90;;;;;;5051565;28;20041;-65
2022/06/05 03:47:52;;;;;;;14.75;9.25;;;11.80;99.90;;;;;;5052775;28;20155;-66
2022/06/05 03:50:18;;;;;;;12.73;10.07;;;11.90;99.90;;;;;;5051991;28;20116;-64
2022/06/05 03:52:45;;;;;;;17.17;10.40;;;11.90;99.90;;;;;;5051650;28;20045;-65
2022/06/05 03:55:15;;;;;;;15.80;10.10;;;11.90;99.90;;;;;;5052933;28;20542;-65
2022/06/05 03:57:40;;;;;;;13.25;9.25;;;11.90;99.90;;;;;;5052602;28;20056;-66
2022/06/05 04:00:09;;;;;;;15.07;10.20;;;11.90;99.90;;;;;;5051476;28;20056;-64
2022/06/05 04:02:35;;;;;;;12.57;9.63;;;12.00;99.90;;;;;;5052979;28;20084;-65
2022/06/05 04:05:03;;;;;;;15.85;10.32;;;11.90;99.90;;;;;;5051479;28;20041;-65
2022/06/05 04:07:29;;;;;;;13.45;10.05;;;12.00;99.90;;;;;;5052522;28;20040;-66
2022/06/05 04:09:54;;;;;;;12.32;9.80;;;12.00;99.90;;;;;;5051237;28;20118;-65
2022/06/05 04:12:20;;;;;;;14.02;10.45;;;12.00;99.90;;;;;;5052313;28;20060;-64
2022/06/05 04:14:46;;;;;;;11.73;10.35;;;12.00;99.90;;;;;;5052569;28;20045;-66
2022/06/05 04:17:11;;;;;;;13.55;10.35;;;12.10;99.90;;;;;;5052501;28;20029;-64
2022/06/05 04:19:37;;;;;;;12.90;10.35;;;12.10;99.90;;;;;;5051099;28;20052;-66
2022/06/05 04:22:04;;;;;;;14.18;10.23;;;12.10;99.90;;;;;;5052447;28;20077;-65
2022/06/05 04:24:30;;;;;;;15.32;10.75;;;12.20;99.90;;;;;;5052311;28;20399;-64
2022/06/05 04:26:56;;;;;;;13.48;10.18;;;12.30;99.90;;;;;;5052042;28;20041;-65
2022/06/05 04:29:22;;;;;;;15.93;10.70;;;12.40;99.90;;;;;;5034359;28;20047;-64
2022/06/05 04:31:48;;;;;;;12.95;10.43;;;12.50;99.90;;;;;;5052082;28;20127;-65
2022/06/05 04:34:17;;;;;;;17.33;10.60;;;12.50;99.90;;;;;;5051980;28;20041;-65
2022/06/05 04:36:44;;;;;;;14.45;10.43;;;12.50;99.90;;;;;;5050223;28;20037;-65
2022/06/05 04:39:10;;;;;;;13.25;10.25;;;12.60;99.90;;;;;;5064401;28;20049;-65
2022/06/05 04:41:36;;;;;;;15.70;10.27;;;12.70;99.90;;;;;;5050822;28;20543;-65
2022/06/05 04:44:02;;;;;;;10.90;9.27;;;12.70;99.90;;;;;;5051226;28;20068;-65
2022/06/05 04:46:28;;;;;;;12.93;10.27;;;12.70;99.90;;;;;;5050189;28;20080;-65
2022/06/05 04:48:54;;;;;;;13.95;10.50;;;12.80;99.90;;;;;;5051422;28;20041;-65
2022/06/05 04:51:21;;;;;;;13.82;10.68;;;12.80;99.90;;;;;;5050293;28;20510;-65
2022/06/05 04:53:49;;;;;;;14.63;10.32;;;12.80;99.90;;;;;;5051559;28;20537;-64
2022/06/05 04:56:20;;;;;;;17.45;12.07;;;12.80;99.90;;;;;;5051318;28;20041;-63
2022/06/05 04:58:46;;;;;;;12.55;10.07;;;12.90;99.90;;;;;;5050973;28;20105;-64
2022/06/05 05:01:15;;;;;;;12.63;10.18;;;12.90;99.90;;;;;;5050127;28;20152;-65
2022/06/05 05:03:41;;;;;;;14.80;10.60;;;12.90;99.90;;;;;;5049859;28;20044;-65
2022/06/05 05:06:07;;;;;;;12.25;10.27;;;12.90;99.90;;;;;;5049812;28;20063;-65
2022/06/05 05:08:33;;;;;;;16.55;11.48;;;13.00;99.90;;;;;;5051086;28;20037;-65
2022/06/05 05:10:59;;;;;;;16.02;11.20;;;13.00;99.90;;;;;;5051211;28;20404;-65
2022/06/05 05:13:24;;;;;;;14.50;10.57;;;13.00;99.90;;;;;;5049918;28;20033;-66
2022/06/05 05:15:52;;;;;;;12.45;10.88;;;13.00;99.90;;;;;;5050016;28;20381;-66
2022/06/05 05:18:17;;;;;;;15.75;11.35;;;13.10;99.90;;;;;;5049900;28;20037;-65
2022/06/05 05:20:43;;;;;;;15.73;10.43;;;13.10;99.90;;;;;;5051387;28;20056;-65
2022/06/05 05:23:09;;;;;;;12.85;9.77;;;13.20;99.90;;;;;;5051007;28;20045;-65
2022/06/05 05:25:35;;;;;;;15.77;10.70;;;13.20;99.90;;;;;;5051079;28;20529;-65
2022/06/05 05:28:00;;;;;;;14.18;10.60;;;13.20;99.90;;;;;;5051145;28;20113;-65
2022/06/05 05:30:26;;;;;;;16.90;10.70;;;13.30;99.90;;;;;;5051059;28;20135;-65
2022/06/05 05:32:52;;;;;;;12.27;10.13;;;13.30;99.90;;;;;;5051110;28;20396;-65
2022/06/05 05:35:20;;;;;;;13.13;10.45;;;13.40;99.90;;;;;;5050797;28;20041;-66
2022/06/05 05:37:46;;;;;;;15.18;11.07;;;13.40;99.90;;;;;;5049660;28;20041;-65
2022/06/05 05:42:56;;;;;;;13.30;10.73;;;13.50;99.90;;;;;;5051089;28;20515;-65
2022/06/05 05:45:22;;;;;;;18.38;10.88;;;13.60;99.90;;;;;;5049755;28;20041;-65
2022/06/05 05:47:48;;;;;;;14.38;10.93;;;13.70;99.90;;;;;;5050815;28;20029;-65
2022/06/05 05:50:17;;;;;;;13.75;9.45;;;13.80;99.90;;;;;;5049445;28;20041;-66
2022/06/05 05:52:44;;;;;;;13.63;11.27;;;13.90;99.90;;;;;;5051508;28;20055;-64
2022/06/05 05:55:18;;;;;;;13.88;10.93;;;14.00;99.90;;;;;;5045594;28;20094;-65
2022/06/05 05:57:46;;;;;;;12.75;10.43;;;14.10;99.90;;;;;;5050571;28;20064;-65
2022/06/05 06:00:14;;;;;;;13.05;10.00;;;14.20;99.90;;;;;;5049787;28;20099;-65
2022/06/05 06:02:41;;;;;;;15.20;11.02;;;14.30;99.90;;;;;;5050724;28;20511;-65
2022/06/05 06:05:08;;;;;;;19.05;10.27;;;14.40;99.90;;;;;;5050493;28;20049;-66
2022/06/05 06:07:35;;;;;;;13.73;10.05;;;14.50;99.90;;;;;;5049151;28;20049;-66
2022/06/05 06:10:00;;;;;;;15.02;10.35;;;14.50;99.90;;;;;;5050548;28;20519;-66
2022/06/05 06:12:26;;;;;;;13.93;10.52;;;14.60;99.90;;;;;;5049218;28;20144;-65
2022/06/05 06:14:52;;;;;;;10.95;9.82;;;14.60;99.90;;;;;;5049958;28;20041;-64
2022/06/05 06:17:19;;;;;;;12.70;10.20;;;14.70;99.90;;;;;;5050379;28;20505;-62
2022/06/05 06:19:45;;;;;;;14.73;10.48;;;14.70;99.90;;;;;;5050479;28;20044;-63
2022/06/05 06:22:10;;;;;;;15.18;10.88;;;14.80;99.90;;;;;;5049000;28;20044;-64
2022/06/05 06:24:36;;;;;;;12.70;9.95;;;14.90;99.90;;;;;;5048965;28;20116;-64
2022/06/05 06:27:02;;;;;;;11.13;9.82;;;15.00;99.90;;;;;;5050432;28;20040;-66
2022/06/05 06:29:28;;;;;;;11.70;10.35;;;15.00;99.90;;;;;;5046078;28;20049;-66
2022/06/05 06:31:54;;;;;;;13.60;10.88;;;15.10;99.90;;;;;;5048404;28;20530;-65
2022/06/05 06:34:19;;;;;;;11.80;9.88;;;15.20;99.90;;;;;;5048620;28;20087;-65
2022/06/05 06:36:45;;;;;;;11.00;9.43;;;15.30;99.90;;;;;;5048731;28;20041;-63
2022/06/05 06:39:11;;;;;;;12.10;9.80;;;15.40;99.90;;;;;;5048458;28;20116;-66
2022/06/05 06:41:37;;;;;;;11.57;9.98;;;15.50;99.90;;;;;;5048541;28;20521;-65
2022/06/05 06:44:03;;;;;;;12.52;9.70;;;15.60;99.90;;;;;;5049809;28;20033;-65
2022/06/05 06:46:29;;;;;;;12.60;9.70;;;15.70;99.90;;;;;;5049598;28;20037;-66
2022/06/05 06:48:55;;;;;;;14.63;9.85;;;15.90;99.90;;;;;;5049664;28;20534;-65
2022/06/05 06:51:21;;;;;;;13.75;10.27;;;16.00;99.90;;;;;;5049992;28;20118;-65
2022/06/05 06:53:47;;;;;;;12.30;9.35;;;16.20;99.90;;;;;;5049962;28;20041;-65
2022/06/05 06:56:19;;;;;;;11.93;9.20;;;16.40;99.90;;;;;;5048685;28;20484;-65
2022/06/05 06:58:45;;;;;;;11.82;9.55;;;16.60;99.90;;;;;;5049339;28;20394;-65
2022/06/05 07:01:12;;;;;;;12.02;9.27;;;16.80;99.90;;;;;;5049532;28;20045;-64
2022/06/05 07:03:39;;;;;;;13.43;9.48;;;16.90;99.90;;;;;;5048632;28;20036;-64
2022/06/05 07:06:07;;;;;;;11.70;9.90;;;16.90;99.90;;;;;;5048986;28;20117;-64
2022/06/05 07:08:33;;;;;;;13.98;9.43;;;17.00;99.90;;;;;;5048868;28;20486;-63
2022/06/05 07:10:59;;;;;;;11.75;9.25;;;17.00;99.90;;;;;;5048457;28;20131;-64
2022/06/05 07:13:25;;;;;;;11.32;8.80;;;17.10;99.90;;;;;;5049971;28;20510;-63
2022/06/05 07:15:51;;;;;;;12.20;8.95;;;17.20;99.90;;;;;;5048821;28;20037;-64
2022/06/05 07:18:18;;;;;;;11.02;8.45;;;17.20;99.90;;;;;;5048729;28;20041;-63
2022/06/05 07:20:44;;;;;;;15.20;9.10;;;17.30;99.90;;;;;;5049838;28;20509;-64
2022/06/05 07:23:11;;;;;;;10.00;8.85;;;17.40;99.90;;;;;;5049896;28;20040;-66
2022/06/05 07:25:38;;;;;;;11.32;8.52;;;17.40;99.90;;;;;;5050521;28;20036;-65
2022/06/05 07:28:04;;;;;;;9.70;8.18;;;17.40;99.90;;;;;;5053230;28;20033;-63
2022/06/05 07:30:31;;;;;;;9.77;8.32;;;17.50;99.90;;;;;;5052059;28;20053;-65
2022/06/05 07:32:57;;;;;;;10.65;8.48;;;17.40;99.90;;;;;;5052079;28;20052;-65
2022/06/05 07:35:23;;;;;;;9.48;8.27;;;17.40;99.90;;;;;;5053275;28;20480;-66
2022/06/05 07:37:48;;;;;;;9.63;8.23;;;17.50;99.90;;;;;;5052089;28;20033;-66
2022/06/05 07:40:15;;;;;;;10.98;9.05;;;17.60;99.90;;;;;;5051899;28;20043;-65
2022/06/05 07:42:42;;;;;;;12.60;8.60;;;17.60;99.90;;;;;;5035493;28;20075;-66
2022/06/05 07:45:11;;;;;;;10.38;8.52;;;17.60;99.90;;;;;;5052849;28;20094;-66
2022/06/05 07:47:37;;;;;;;11.18;8.75;;;17.60;99.90;;;;;;5053019;28;20138;-66
2022/06/05 07:50:04;;;;;;;11.18;8.82;;;17.70;99.90;;;;;;5053024;28;20029;-66
2022/06/05 07:55:13;;;;;;;11.60;8.32;;;17.80;99.90;;;;;;5051486;28;20095;-65
2022/06/05 07:57:39;;;;;;;10.60;8.65;;;17.90;99.90;;;;;;5051480;28;20491;-65
2022/06/05 08:00:07;;;;;;;9.45;8.45;;;17.90;99.90;;;;;;5051369;28;20048;-66
2022/06/05 08:02:34;;;;;;;10.65;8.50;;;18.00;99.90;;;;;;5052792;28;20075;-65
2022/06/05 08:05:03;;;;;;;8.65;7.63;;;18.10;99.90;;;;;;5051169;28;20037;-65
2022/06/05 08:07:31;;;;;;;10.98;8.05;;;18.10;99.90;;;;;;5052695;28;20115;-65
2022/06/05 08:09:57;;;;;;;11.77;8.38;;;18.20;99.90;;;;;;5051325;28;20507;-65
2022/06/05 08:12:27;;;;;;;8.98;8.00;;;18.20;99.90;;;;;;5052684;28;20035;-66
2022/06/05 08:14:53;;;;;;;9.50;7.80;;;18.30;99.90;;;;;;5052907;28;20037;-66
2022/06/05 08:17:25;;;;;;;10.30;7.82;;;18.30;99.90;;;;;;5052331;28;20033;-66
2022/06/05 08:19:51;;;;;;;9.45;8.48;;;18.40;99.90;;;;;;5049501;28;20037;-63
2022/06/05 08:22:19;;;;;;;9.32;7.80;;;18.40;99.90;;;;;;5051618;28;20036;-64
2022/06/05 08:24:45;;;;;;;9.05;7.63;;;18.50;99.90;;;;;;5051978;28;20381;-64
2022/06/05 08:27:13;;;;;;;8.55;6.57;;;18.50;99.90;;;;;;5051838;28;20079;-63
2022/06/05 08:29:39;;;;;;;8.27;6.80;;;18.70;99.90;;;;;;5052147;28;20053;-63
2022/06/05 08:32:06;;;;;;;10.07;7.57;;;18.80;99.90;;;;;;5051781;28;20052;-64
2022/06/05 08:34:31;;;;;;;9.02;7.22;;;18.90;99.90;;;;;;5050908;28;20514;-64
2022/06/05 08:42:57;;;;;;;8.35;7.05;;;19.20;99.90;;;;;;5051673;28;20041;-64
2022/06/05 08:45:28;;;;;;;8.68;6.85;;;19.20;99.90;;;;;;5029184;28;20133;-64
2022/06/05 08:48:02;;;;;;;10.10;7.13;;;19.40;99.90;;;;;;5029490;28;20045;-64
2022/06/05 08:50:36;;;;;;;8.60;7.68;;;19.60;99.90;;;;;;5012344;28;20121;-64
2022/06/05 08:53:21;;;;;;;10.38;7.25;;;19.80;99.90;;;;;;5013022;28;20120;-63
2022/06/05 08:55:49;;;;;;;7.60;6.90;;;20.10;99.90;;;;;;5029203;28;20093;-64
2022/06/05 08:58:46;;;;;;;9.55;6.80;;;20.40;99.90;;;;;;5029020;28;20516;-65
2022/06/05 09:01:21;;;;;;;10.60;7.15;;;20.70;99.90;;;;;;5028753;28;20041;-63
2022/06/05 09:03:59;;;;;;;9.02;6.63;;;20.80;99.90;;;;;;5029280;28;20052;-64
2022/06/05 09:06:39;;;;;;;9.20;6.68;;;20.90;99.90;;;;;;5029291;28;20033;-64
2022/06/05 09:09:13;;;;;;;9.30;6.85;;;20.90;99.90;;;;;;5029223;28;20224;-63
2022/06/05 09:11:54;;;;;;;8.00;6.35;;;20.90;99.90;;;;;;5029253;28;20045;-63
2022/06/05 09:14:36;;;;;;;10.30;7.10;;;21.00;99.90;;;;;;5012522;28;20053;-64
2022/06/05 09:17:15;;;;;;;7.90;7.00;;;21.20;99.90;;;;;;5029120;28;20053;-64
2022/06/05 09:19:42;;;;;;;8.48;6.20;;;21.30;99.90;;;;;;5029098;28;20072;-64
2022/06/05 09:22:36;;;;;;;8.20;6.60;;;21.40;99.90;;;;;;5039032;28;20041;-64
2022/06/05 09:25:02;;;;;;;8.25;6.07;;;21.50;99.90;;;;;;5049724;28;20033;-64
2022/06/05 09:27:44;;;;;;;7.07;6.18;;;21.50;99.90;;;;;;5051366;28;20458;-64
2022/06/05 09:30:28;;;;;;;6.35;5.72;;;21.50;99.90;;;;;;5049877;28;20051;-64
2022/06/05 09:33:22;;;;;;;8.23;6.07;;;21.50;99.90;;;;;;5051092;28;20037;-64
2022/06/05 09:35:56;;;;;;;7.63;6.82;;;21.60;99.90;;;;;;5050926;28;20040;-64
2022/06/05 09:38:28;;;;;;;8.57;6.60;;;21.60;99.90;;;;;;5050956;28;20048;-64
2022/06/05 09:41:15;;;;;;;10.32;6.50;;;21.70;99.90;;;;;;5050951;28;20040;-64
2022/06/05 09:43:49;;;;;;;7.38;6.05;;;21.70;99.90;;;;;;5049432;28;20033;-63
2022/06/05 09:46:30;;;;;;;6.72;5.72;;;21.70;99.90;;;;;;5049551;28;20037;-64
2022/06/05 09:49:01;;;;;;;9.68;6.60;;;21.70;99.90;;;;;;5048726;28;20049;-64
2022/06/05 09:51:27;;;;;;;8.15;5.70;;;21.60;99.90;;;;;;5049529;28;20041;-64
2022/06/05 09:54:17;;;;;;;8.25;5.80;;;21.60;99.90;;;;;;5050796;28;20086;-64
2022/06/05 09:59:43;;;;;;;7.85;7.03;;;21.60;99.90;;;;;;5048904;28;20538;-64
2022/06/05 10:02:09;;;;;;;7.65;6.28;;;21.70;99.90;;;;;;5050547;28;20036;-64
2022/06/05 10:04:36;;;;;;;6.80;6.20;;;21.70;99.90;;;;;;5050297;28;20399;-63
2022/06/05 10:07:08;;;;;;;7.63;6.90;;;21.70;99.90;;;;;;5050872;28;20036;-64
2022/06/05 10:09:42;;;;;;;6.38;5.78;;;21.60;99.90;;;;;;5032556;28;20135;-65
2022/06/05 10:12:27;;;;;;;7.70;6.45;;;21.60;99.90;;;;;;5047235;28;20142;-63
2022/06/05 10:15:19;;;;;;;8.20;6.18;;;21.60;99.90;;;;;;5048967;28;20444;-64
2022/06/05 10:17:57;;;;;;;5.97;5.17;;;21.70;99.90;;;;;;5043993;28;20064;-65
2022/06/05 10:20:22;;;;;;;6.78;6.00;;;21.70;99.90;;;;;;5048752;28;20041;-63
2022/06/05 10:22:56;;;;;;;7.53;6.72;;;21.70;99.90;;;;;;5049920;28;20040;-64
2022/06/05 10:25:35;;;;;;;6.35;5.75;;;21.80;99.90;;;;;;5050105;28;20029;-64
2022/06/05 10:28:03;;;;;;;6.65;5.80;;;21.80;99.90;;;;;;5048751;28;20159;-63
2022/06/05 10:30:35;;;;;;;7.22;6.20;;;21.90;99.90;;;;;;5050087;28;20160;-64
2022/06/05 10:33:14;;;;;;;7.30;6.20;;;21.90;99.90;;;;;;5050279;28;20029;-64
2022/06/05 10:35:51;;;;;;;6.38;5.78;;;21.90;99.90;;;;;;5049677;28;20074;-64
2022/06/05 10:38:55;;;;;;;9.63;5.57;;;21.90;99.90;;;;;;5048469;28;20443;-64
2022/06/05 10:41:35;;;;;;;6.75;5.65;;;21.90;99.90;;;;;;5048260;28;20132;-64
2022/06/05 10:44:28;;;;;;;6.53;5.63;;;21.90;99.90;;;;;;5032368;28;20049;-63
2022/06/05 10:47:12;;;;;;;7.30;5.75;;;21.90;99.90;;;;;;5048960;28;20447;-64
2022/06/05 10:50:14;;;;;;;8.18;5.75;;;21.90;99.90;;;;;;5050105;28;20049;-64
2022/06/05 10:53:17;;;;;;;7.13;5.90;;;21.90;99.90;;;;;;5048630;28;20087;-64
2022/06/05 10:55:59;;;;;;;6.13;5.53;;;21.90;99.90;;;;;;5048899;28;20047;-64
2022/06/05 10:58:35;;;;;;;7.45;5.68;;;21.80;99.90;;;;;;5048798;28;20128;-65
2022/06/05 11:01:12;;;;;;;8.95;5.55;;;21.80;99.90;;;;;;5052938;28;20052;-64
2022/06/05 11:03:53;;;;;;;6.25;4.68;;;21.80;99.90;;;;;;5052450;28;20110;-64
2022/06/05 11:06:53;;;;;;;8.07;5.88;;;21.80;99.90;;;;;;5052623;28;20130;-64
2022/06/05 11:09:47;;;;;;;6.25;5.63;;;21.80;99.90;;;;;;5052375;28;20047;-64
2022/06/05 11:15:41;;;;;;;5.85;5.03;;;21.80;99.90;;;;;;5053748;28;20045;-63
2022/06/05 11:18:22;;;;;;;6.13;4.90;;;21.90;99.90;;;;;;5053588;28;20403;-64
2022/06/05 11:21:01;;;;;;;6.63;5.20;;;21.90;99.90;;;;;;5052303;28;20037;-64
2022/06/05 11:23:35;;;;;;;5.63;5.15;;;21.90;99.90;;;;;;5053496;28;20134;-64
2022/06/05 11:26:31;;;;;;;6.88;5.38;;;21.90;99.90;;;;;;5051997;28;20476;-64
2022/06/05 11:29:27;;;;;;;8.32;5.05;;;21.90;99.90;;;;;;5053410;28;20036;-64
2022/06/05 11:31:55;;;;;;;5.95;5.35;;;22.00;99.90;;;;;;5053223;28;20041;-63
2022/06/05 11:34:35;;;;;;;7.63;5.57;;;22.00;99.90;;;;;;5052212;28;20511;-65
2022/06/05 11:37:34;;;;;;;5.88;5.28;;;22.10;99.90;;;;;;5053105;28;20037;-64
2022/06/05 11:40:11;;;;;;;6.30;5.00;;;22.20;99.90;;;;;;5051659;28;20130;-64
2022/06/05 11:43:18;;;;;;;6.30;5.50;;;22.20;99.90;;;;;;5053154;28;20124;-64
2022/06/05 11:46:00;;;;;;;5.95;5.45;;;22.20;99.90;;;;;;5053125;28;20029;-64
2022/06/05 11:48:37;;;;;;;;;;;22.20;99.90;;;;;;5053462;28;20051;-64
2022/06/05 11:51:27;;;;;;;6.95;5.22;;;22.20;99.90;;;;;;5051823;28;19971;-64
2022/06/05 11:54:07;;;;;;;6.75;5.28;;;22.10;99.90;;;;;;5051763;28;20479;-64
2022/06/05 11:56:51;;;;;;;6.60;5.45;;;22.20;99.90;;;;;;5052934;28;20045;-63
2022/06/05 11:59:29;;;;;;;6.05;5.45;;;22.20;99.90;;;;;;5052504;28;20492;-64
2022/06/05 12:02:28;;;;;;;6.70;5.68;;;22.20;99.90;;;;;;5049892;28;20079;-64
2022/06/05 12:05:18;;;;;;;6.43;4.80;;;22.20;99.90;;;;;;5052289;28;20040;-64
2022/06/05 12:07:47;;;;;;;6.20;5.40;;;22.20;99.90;;;;;;5050901;28;20063;-64
2022/06/05 12:10:24;;;;;;;5.55;5.05;;;22.20;99.90;;;;;;5034172;28;20126;-64
2022/06/05 12:13:13;;;;;;;5.75;5.15;;;22.20;99.90;;;;;;5050237;28;20179;-64
2022/06/05 12:15:45;;;;;;;6.88;5.57;;;22.20;99.90;;;;;;5052282;28;20103;-64
2022/06/05 12:18:21;;;;;;;7.30;5.35;;;22.10;99.90;;;;;;5051969;28;20549;-64
2022/06/05 12:20:53;;;;;;;6.53;5.28;;;22.10;99.90;;;;;;5050655;28;20049;-64
2022/06/05 12:23:34;;;;;;;5.85;5.28;;;22.10;99.90;;;;;;5052119;28;20394;-64
2022/06/05 12:26:12;;;;;;;7.07;5.15;;;22.10;99.90;;;;;;5050332;28;20049;-64
2022/06/05 12:28:40;;;;;;;7.00;5.03;;;22.10;99.90;;;;;;5050872;28;20045;-64
2022/06/05 12:31:17;;;;;;;5.88;5.15;;;22.20;99.90;;;;;;5051840;28;20044;-64
2022/06/05 12:34:10;;;;;;;5.93;4.75;;;22.20;99.90;;;;;;5050097;28;20097;-63
2022/06/05 12:36:58;;;;;;;5.85;5.25;;;22.20;99.90;;;;;;5050689;28;20052;-64
2022/06/05 12:39:33;;;;;;;5.05;4.65;;;22.30;99.90;;;;;;5051893;28;20079;-63
2022/06/05 12:42:24;;;;;;;5.75;5.05;;;22.30;99.90;;;;;;5051062;28;20511;-64
2022/06/05 12:44:55;;;;;;;6.05;4.88;;;22.30;99.90;;;;;;5051851;28;20045;-64
2022/06/05 12:47:39;;;;;;;5.35;4.80;;;22.30;99.90;;;;;;5050419;28;20044;-64
2022/06/05 12:50:28;;;;;;;5.13;4.72;;;22.40;99.90;;;;;;5052026;28;20051;-64
2022/06/05 12:53:04;;;;;;;5.57;4.72;;;22.40;99.90;;;;;;5051823;28;20508;-64
2022/06/05 12:55:34;;;;;;;7.30;5.00;;;22.40;99.90;;;;;;5051726;28;20059;-64
2022/06/05 12:58:12;;;;;;;5.55;4.97;;;22.50;99.90;;;;;;5050405;28;20465;-64
2022/06/05 13:00:57;;;;;;;4.82;4.43;;;22.50;99.90;;;;;;5051759;28;20470;-64
2022/06/05 13:03:49;;;;;;;5.55;5.05;;;22.50;99.90;;;;;;5050250;28;20157;-63
2022/06/05 13:06:51;;;;;;;8.55;5.43;;;22.50;99.90;;;;;;5050328;28;20498;-65
2022/06/05 13:09:36;;;;;;;5.65;5.15;;;22.60;99.90;;;;;;5051499;28;20043;-64
2022/06/05 13:12:25;;;;;;;5.38;4.85;;;22.60;99.90;;;;;;5051406;28;20035;-65
2022/06/05 13:14:58;;;;;;;6.82;4.75;;;22.70;99.90;;;;;;5050106;28;20082;-66
2022/06/05 13:17:46;;;;;;;5.70;4.80;;;22.70;99.90;;;;;;5051466;28;20119;-67
2022/06/05 13:20:17;;;;;;;6.15;4.72;;;22.80;99.90;;;;;;5051302;28;20041;-66
2022/06/05 13:23:01;;;;;;;5.45;4.70;;;22.80;99.90;;;;;;5050240;28;20045;-66
2022/06/05 13:25:49;;;;;;;5.45;4.70;;;22.90;99.90;;;;;;5049756;28;20086;-65
2022/06/05 13:28:40;;;;;;;5.28;4.45;;;23.00;99.90;;;;;;5051143;28;20037;-65
2022/06/05 13:31:39;;;;;;;10.85;5.15;;;23.10;99.90;;;;;;5049673;28;20073;-63